Terminal Aerodrome Forecast
Issued by NWS

Home | Current Version | Previous Version | Text Only | Print | Product List | Glossary On
Versions: 1 2 3 4 5 6 7 8 9 10 11 12 13 14 15 16 17 18 19 20 21 22 23 24 25
000
FTUS46 KMTR 251100
TAFSFO
TAF
KSFO 251127Z 2512/2618 02004KT P6SM SKC
     FM251900 11004KT 6SM HZ SKC
     FM260000 31005KT P6SM SKC
     FM260500 VRB03KT P6SM FEW250=

USA.gov is the U.S. government's official web portal to all federal, state and local government web resources and services.